createdAt,value
2019-01-14T00:00:29.069Z,50.76
2019-01-14T00:02:56.394Z,51.50
2019-01-14T00:05:23.651Z,51.58
2019-01-14T00:07:50.889Z,52.16
2019-01-14T00:10:18.037Z,51.70
2019-01-14T00:12:44.956Z,51.94
2019-01-14T00:15:12.239Z,50.85
2019-01-14T00:17:39.114Z,50.68
2019-01-14T00:20:06.065Z,50.66
2019-01-14T00:22:33.388Z,50.42
2019-01-14T00:25:00.271Z,50.94
2019-01-14T00:27:27.249Z,50.63
2019-01-14T00:29:54.532Z,50.43
2019-01-14T00:32:21.677Z,50.26
2019-01-14T00:34:48.545Z,49.54
2019-01-14T00:37:16.401Z,50.10
2019-01-14T00:39:43.363Z,49.82
2019-01-14T00:42:10.248Z,51.01
2019-01-14T00:44:37.233Z,49.89
2019-01-14T00:47:04.142Z,49.52
2019-01-14T00:49:32.954Z,49.67
2019-01-14T00:52:00.121Z,49.53
2019-01-14T00:54:27.372Z,49.82
2019-01-14T00:56:54.523Z,49.51
2019-01-14T00:59:21.468Z,49.87
2019-01-14T01:01:48.416Z,50.33
2019-01-14T01:04:15.280Z,51.10
2019-01-14T01:06:43.320Z,51.13
2019-01-14T01:09:10.276Z,51.08
2019-01-14T01:11:37.183Z,50.25
2019-01-14T01:14:04.066Z,50.14
2019-01-14T01:16:30.940Z,49.54
2019-01-14T01:18:58.169Z,48.82
2019-01-14T01:21:25.136Z,47.85
2019-01-14T01:23:52.366Z,48.96
2019-01-14T01:26:19.299Z,47.89
2019-01-14T01:28:46.438Z,47.27
2019-01-14T01:31:13.590Z,47.31
2019-01-14T01:33:40.462Z,46.77
2019-01-14T01:36:07.336Z,46.96
2019-01-14T01:38:34.356Z,46.14
2019-01-14T01:41:02.282Z,45.97
2019-01-14T01:43:29.357Z,46.14
2019-01-14T01:45:56.318Z,46.00
2019-01-14T01:48:23.179Z,45.83
2019-01-14T01:50:50.056Z,45.28
2019-01-14T01:53:16.945Z,45.33
2019-01-14T01:55:43.889Z,45.82
2019-01-14T01:58:10.754Z,45.08
2019-01-14T02:00:38.198Z,45.20
2019-01-14T02:03:05.421Z,44.75
2019-01-14T02:05:32.589Z,46.21
2019-01-14T02:07:59.544Z,46.14
2019-01-14T02:10:26.441Z,45.44
2019-01-14T02:12:53.721Z,45.31
2019-01-14T02:15:20.610Z,44.89
2019-01-14T02:17:48.950Z,44.65
2019-01-14T02:20:15.830Z,44.42
2019-01-14T02:22:47.311Z,44.45
2019-01-14T02:25:14.501Z,44.35
2019-01-14T02:27:41.368Z,44.27
2019-01-14T02:30:08.710Z,43.95
2019-01-14T02:32:35.958Z,44.10
2019-01-14T02:35:02.894Z,43.91
2019-01-14T02:37:30.024Z,44.34
2019-01-14T02:39:57.993Z,44.37
2019-01-14T02:42:24.861Z,44.47
2019-01-14T02:44:52.032Z,43.71
2019-01-14T02:47:19.014Z,43.61
2019-01-14T02:49:47.819Z,43.60
2019-01-14T02:52:15.707Z,43.65
2019-01-14T02:54:42.589Z,43.72
2019-01-14T02:57:09.540Z,42.88
2019-01-14T02:59:36.755Z,42.45
2019-01-14T03:02:03.637Z,43.05
2019-01-14T03:04:30.947Z,42.72
2019-01-14T03:06:58.169Z,42.18
2019-01-14T03:09:25.378Z,41.81
2019-01-14T03:11:52.326Z,41.88
2019-01-14T03:14:19.599Z,41.63
2019-01-14T03:16:46.470Z,42.17
2019-01-14T03:19:13.748Z,42.88
2019-01-14T03:21:40.657Z,42.59
2019-01-14T03:24:07.543Z,43.21
2019-01-14T03:26:34.805Z,42.06
2019-01-14T03:29:02.044Z,42.23
2019-01-14T03:31:28.910Z,41.72
2019-01-14T03:33:55.804Z,41.95
2019-01-14T03:36:22.757Z,42.31
2019-01-14T03:38:49.712Z,43.15
2019-01-14T03:41:16.603Z,43.44
2019-01-14T03:43:43.828Z,42.94
2019-01-14T03:46:10.765Z,43.40
2019-01-14T03:48:37.653Z,43.02
2019-01-14T03:51:04.613Z,42.91
2019-01-14T03:53:31.910Z,43.23
2019-01-14T03:55:58.865Z,42.70
2019-01-14T03:58:25.795Z,42.67
2019-01-14T04:00:52.727Z,43.95
2019-01-14T04:03:19.661Z,43.51
2019-01-14T04:05:47.875Z,43.14
2019-01-14T04:08:15.114Z,43.11
2019-01-14T04:10:41.975Z,42.35
2019-01-14T04:13:08.858Z,42.27
2019-01-14T04:15:35.808Z,42.07
2019-01-14T04:18:03.021Z,41.96
2019-01-14T04:20:29.974Z,42.53
2019-01-14T04:22:56.954Z,42.16
2019-01-14T04:25:23.817Z,41.83
2019-01-14T04:27:51.105Z,42.52
2019-01-14T04:30:18.067Z,41.92
2019-01-14T04:32:45.286Z,41.82
2019-01-14T04:35:12.165Z,41.51
2019-01-14T04:37:39.120Z,41.96
2019-01-14T04:40:05.985Z,41.52
2019-01-14T04:42:33.856Z,40.90
2019-01-14T04:45:00.826Z,40.40
2019-01-14T04:47:27.823Z,40.70
2019-01-14T04:49:55.252Z,40.39
2019-01-14T04:52:22.620Z,40.31
2019-01-14T04:54:49.591Z,40.96
2019-01-14T04:57:16.653Z,40.79
2019-01-14T04:59:43.991Z,40.55
2019-01-14T05:02:11.207Z,40.51
2019-01-14T05:04:38.145Z,40.83
2019-01-14T05:07:05.408Z,40.92
2019-01-14T05:09:32.619Z,40.39
2019-01-14T05:11:59.549Z,40.67
2019-01-14T05:14:26.436Z,41.23
2019-01-14T05:16:53.398Z,41.46
2019-01-14T05:19:20.747Z,41.49
2019-01-14T05:21:48.677Z,43.52
2019-01-14T05:24:15.896Z,43.22
2019-01-14T05:26:42.786Z,45.37
2019-01-14T05:29:09.717Z,42.33
2019-01-14T05:31:36.975Z,42.76
2019-01-14T05:34:03.951Z,41.96
2019-01-14T05:36:30.984Z,42.11
2019-01-14T05:38:57.936Z,41.55
2019-01-14T05:41:25.390Z,41.44
2019-01-14T05:43:52.315Z,40.59
2019-01-14T05:46:19.197Z,40.38
2019-01-14T05:48:46.453Z,41.42
2019-01-14T05:51:13.313Z,40.80
2019-01-14T05:53:40.191Z,41.09
2019-01-14T05:56:07.110Z,41.34
2019-01-14T05:58:34.008Z,40.26
2019-01-14T06:01:00.908Z,39.77
2019-01-14T06:03:28.135Z,40.33
2019-01-14T06:05:55.479Z,40.83
2019-01-14T06:08:22.345Z,40.47
2019-01-14T06:10:49.585Z,41.08
2019-01-14T06:13:16.539Z,41.02
2019-01-14T06:15:43.465Z,40.33
2019-01-14T06:18:10.428Z,39.59
2019-01-14T06:20:37.658Z,40.31
2019-01-14T06:23:04.812Z,39.76
2019-01-14T06:25:31.711Z,39.29
2019-01-14T06:27:58.666Z,39.13
2019-01-14T06:30:25.962Z,39.58
2019-01-14T06:32:52.898Z,39.21
2019-01-14T06:35:20.062Z,38.98
2019-01-14T06:37:52.258Z,39.58
2019-01-14T06:40:16.404Z,39.05
2019-01-14T06:42:43.559Z,39.43
2019-01-14T06:45:10.815Z,39.88
2019-01-14T06:47:38.073Z,39.83
2019-01-14T06:50:05.045Z,39.10
2019-01-14T06:52:31.909Z,39.29
2019-01-14T06:54:58.774Z,39.87
2019-01-14T06:57:25.650Z,39.55
2019-01-14T06:59:52.911Z,39.47
2019-01-14T07:02:19.861Z,39.67
2019-01-14T07:04:46.799Z,39.82
2019-01-14T07:07:14.046Z,39.98
2019-01-14T07:09:41.008Z,40.33
2019-01-14T07:12:08.240Z,39.55
2019-01-14T07:14:35.235Z,39.74
2019-01-14T07:17:02.199Z,40.41
2019-01-14T07:19:29.156Z,40.66
2019-01-14T07:21:56.031Z,40.25
2019-01-14T07:24:23.377Z,40.86
2019-01-14T07:26:50.275Z,39.86
2019-01-14T07:29:17.218Z,39.93
2019-01-14T07:31:44.165Z,40.27
2019-01-14T07:34:11.094Z,40.40
2019-01-14T07:36:37.998Z,41.59
2019-01-14T07:39:05.958Z,41.31
2019-01-14T07:41:32.908Z,41.74
2019-01-14T07:44:00.159Z,43.59
2019-01-14T07:46:27.037Z,44.17
2019-01-14T07:48:54.285Z,43.79
2019-01-14T07:51:21.230Z,43.35
2019-01-14T07:53:48.473Z,42.58
2019-01-14T07:56:15.500Z,42.42
2019-01-14T07:58:42.443Z,42.09
2019-01-14T08:01:09.356Z,41.78
2019-01-14T08:03:36.277Z,42.18
2019-01-14T08:06:03.215Z,41.87
2019-01-14T08:08:30.430Z,41.98
2019-01-14T08:10:57.308Z,41.61
2019-01-14T08:13:24.241Z,41.43
2019-01-14T08:15:51.383Z,41.96
2019-01-14T08:18:18.275Z,41.70
2019-01-14T08:20:45.590Z,41.59
2019-01-14T08:23:12.831Z,41.12
2019-01-14T08:25:39.732Z,41.57
2019-01-14T08:28:06.934Z,40.71
2019-01-14T08:30:33.810Z,40.51
2019-01-14T08:33:01.132Z,40.52
2019-01-14T08:35:28.046Z,40.49
2019-01-14T08:37:55.318Z,40.49
2019-01-14T08:40:22.227Z,39.56
2019-01-14T08:42:49.566Z,40.29
2019-01-14T08:45:16.536Z,41.13
2019-01-14T08:47:43.655Z,39.81
2019-01-14T08:50:10.862Z,39.62
2019-01-14T08:52:37.791Z,39.33
2019-01-14T08:55:05.062Z,40.04
2019-01-14T08:57:31.921Z,40.33
2019-01-14T08:59:58.816Z,41.24
2019-01-14T09:02:26.101Z,41.07
2019-01-14T09:04:53.256Z,41.51
2019-01-14T09:07:20.416Z,41.02
2019-01-14T09:09:47.304Z,41.00
2019-01-14T09:12:14.192Z,41.64
2019-01-14T09:14:41.463Z,41.10
2019-01-14T09:17:08.412Z,41.03
2019-01-14T09:19:35.547Z,40.70
2019-01-14T09:22:02.815Z,40.87
2019-01-14T09:24:30.171Z,40.17
2019-01-14T09:26:57.407Z,41.13
2019-01-14T09:29:24.287Z,40.60
2019-01-14T09:31:51.603Z,40.51
2019-01-14T09:34:18.484Z,39.81
2019-01-14T09:36:46.537Z,39.04
2019-01-14T09:39:13.787Z,39.39
2019-01-14T09:41:40.758Z,40.58
2019-01-14T09:44:08.526Z,40.31
2019-01-14T09:46:35.464Z,39.28
2019-01-14T09:49:02.706Z,38.36
2019-01-14T09:51:29.665Z,37.50
2019-01-14T09:53:56.627Z,37.97
2019-01-14T09:56:23.936Z,38.12
2019-01-14T09:58:51.087Z,37.51
2019-01-14T10:01:17.967Z,37.50
2019-01-14T10:03:44.849Z,37.00
2019-01-14T10:06:12.085Z,37.02
2019-01-14T10:08:43.041Z,36.33
2019-01-14T10:11:08.280Z,36.25
2019-01-14T10:13:35.634Z,36.70
2019-01-14T10:16:02.888Z,36.06
2019-01-14T10:18:29.927Z,36.02
2019-01-14T10:20:57.182Z,35.67
2019-01-14T10:23:24.060Z,36.08
2019-01-14T10:25:51.026Z,35.82
2019-01-14T10:28:18.013Z,35.65
2019-01-14T10:30:44.965Z,36.08
2019-01-14T10:33:11.925Z,37.04
2019-01-14T10:35:38.877Z,36.33
2019-01-14T10:38:05.751Z,37.10
2019-01-14T10:40:33.072Z,36.75
2019-01-14T10:43:00.020Z,37.27
2019-01-14T10:45:27.256Z,35.96
2019-01-14T10:47:54.266Z,37.18
2019-01-14T10:50:21.264Z,37.19
2019-01-14T10:52:49.694Z,37.51
2019-01-14T10:55:17.198Z,37.98
2019-01-14T10:57:44.163Z,36.81
2019-01-14T11:00:11.382Z,37.21
2019-01-14T11:02:38.286Z,37.49
2019-01-14T11:05:05.490Z,37.33
2019-01-14T11:07:32.736Z,37.30
2019-01-14T11:10:00.002Z,37.01
2019-01-14T11:12:26.960Z,37.12
2019-01-14T11:14:55.102Z,37.32
2019-01-14T11:17:22.015Z,36.56
2019-01-14T11:19:48.887Z,36.26
2019-01-14T11:22:15.776Z,37.26
2019-01-14T11:24:42.991Z,36.94
2019-01-14T11:27:09.859Z,36.24
2019-01-14T11:29:36.721Z,36.84
2019-01-14T11:32:03.952Z,36.76
2019-01-14T11:34:30.905Z,39.43
2019-01-14T11:36:57.778Z,41.14
2019-01-14T11:39:24.664Z,41.59
2019-01-14T11:41:51.823Z,41.50
2019-01-14T11:44:18.977Z,42.34
2019-01-14T11:46:45.924Z,39.62
2019-01-14T11:49:12.877Z,39.04
2019-01-14T11:51:39.864Z,39.29
2019-01-14T11:54:07.046Z,40.46
2019-01-14T11:56:33.936Z,39.99
2019-01-14T11:59:00.989Z,41.22
2019-01-14T12:01:28.233Z,41.17
2019-01-14T12:03:55.324Z,39.84
2019-01-14T12:06:22.278Z,38.31
2019-01-14T12:08:49.242Z,39.91
2019-01-14T12:11:16.445Z,40.24
2019-01-14T12:13:43.381Z,39.15
2019-01-14T12:16:10.249Z,37.86
2019-01-14T12:18:37.451Z,37.23
2019-01-14T12:21:04.421Z,37.52
2019-01-14T12:23:31.404Z,38.72
2019-01-14T12:25:59.735Z,37.81
2019-01-14T12:28:26.662Z,37.08
2019-01-14T12:30:53.531Z,37.14
2019-01-14T12:33:20.874Z,37.63
2019-01-14T12:35:47.820Z,38.25
2019-01-14T12:38:15.070Z,38.17
2019-01-14T12:40:41.992Z,42.83
2019-01-14T12:43:08.886Z,45.43
2019-01-14T12:45:35.774Z,46.89
2019-01-14T12:48:02.748Z,46.61
2019-01-14T12:50:29.714Z,46.70
2019-01-14T12:52:56.930Z,45.78
2019-01-14T12:55:23.807Z,45.71
2019-01-14T12:57:50.697Z,44.61
2019-01-14T13:00:17.684Z,44.98
2019-01-14T13:02:44.910Z,43.95
2019-01-14T13:05:11.822Z,43.75
2019-01-14T13:07:39.117Z,43.51
2019-01-14T13:10:05.981Z,43.41
2019-01-14T13:12:32.865Z,42.61
2019-01-14T13:15:00.248Z,41.75
2019-01-14T13:17:27.173Z,41.79
2019-01-14T13:19:54.348Z,42.20
2019-01-14T13:22:21.231Z,41.33
2019-01-14T13:24:48.452Z,41.39
2019-01-14T13:27:15.357Z,42.66
2019-01-14T13:29:42.660Z,40.71
2019-01-14T13:32:09.894Z,40.89
2019-01-14T13:34:36.773Z,39.68
2019-01-14T13:37:03.655Z,40.21
2019-01-14T13:39:34.181Z,40.60
2019-01-14T13:41:59.278Z,41.48
2019-01-14T13:44:26.471Z,42.19
2019-01-14T13:46:53.718Z,41.90
2019-01-14T13:49:20.866Z,41.53
2019-01-14T13:51:47.800Z,41.82
2019-01-14T13:54:14.796Z,41.64
2019-01-14T13:56:41.734Z,42.05
2019-01-14T13:59:08.966Z,41.71
2019-01-14T14:01:35.845Z,41.35
2019-01-14T14:04:03.173Z,42.26
2019-01-14T14:06:30.057Z,42.38
2019-01-14T14:08:57.021Z,42.33
2019-01-14T14:11:24.308Z,43.28
2019-01-14T14:13:51.462Z,43.39
2019-01-14T14:16:18.622Z,43.38
2019-01-14T14:18:45.582Z,43.62
2019-01-14T14:21:12.515Z,43.42
2019-01-14T14:23:39.451Z,44.65
2019-01-14T14:26:06.346Z,49.46
2019-01-14T14:28:34.338Z,49.49
2019-01-14T14:31:01.620Z,56.60
2019-01-14T14:33:28.777Z,57.01
2019-01-14T14:35:56.013Z,52.90
2019-01-14T14:38:22.902Z,52.28
2019-01-14T14:40:50.228Z,50.81
2019-01-14T14:43:17.213Z,48.35
2019-01-14T14:45:44.094Z,47.42
2019-01-14T14:48:11.033Z,46.38
2019-01-14T14:50:38.970Z,46.18
2019-01-14T14:53:05.864Z,46.28
2019-01-14T14:55:32.832Z,44.74
2019-01-14T14:57:59.789Z,43.90
2019-01-14T15:00:26.722Z,42.84
2019-01-14T15:02:53.668Z,42.33
2019-01-14T15:05:20.852Z,42.00
2019-01-14T15:07:47.832Z,42.02
2019-01-14T15:10:14.775Z,41.48
2019-01-14T15:12:41.713Z,41.30
2019-01-14T15:15:08.898Z,40.72
2019-01-14T15:17:35.820Z,40.38
2019-01-14T15:20:02.746Z,40.07
2019-01-14T15:22:29.648Z,39.62
2019-01-14T15:24:56.518Z,39.95
2019-01-14T15:27:23.728Z,39.03
2019-01-14T15:29:51.766Z,38.72
2019-01-14T15:32:19.060Z,39.92
2019-01-14T15:34:46.161Z,39.44
2019-01-14T15:37:13.085Z,39.49
2019-01-14T15:39:40.089Z,39.09
2019-01-14T15:42:07.394Z,38.96
2019-01-14T15:44:34.809Z,39.29
2019-01-14T15:47:01.776Z,39.40
2019-01-14T15:49:28.752Z,39.56
2019-01-14T15:51:57.739Z,40.11
2019-01-14T15:54:24.684Z,39.30
2019-01-14T15:56:52.197Z,39.73
2019-01-14T15:59:19.186Z,39.82
2019-01-14T16:01:46.068Z,40.09
2019-01-14T16:04:12.998Z,39.94
2019-01-14T16:06:39.969Z,40.98
2019-01-14T16:09:07.144Z,41.74
2019-01-14T16:11:34.138Z,41.02
2019-01-14T16:14:01.315Z,40.70
2019-01-14T16:16:28.184Z,40.66
2019-01-14T16:18:55.162Z,40.83
2019-01-14T16:21:22.111Z,40.65
2019-01-14T16:23:49.096Z,40.16
2019-01-14T16:26:16.059Z,40.54
2019-01-14T16:28:42.991Z,40.46
2019-01-14T16:31:09.873Z,39.69
2019-01-14T16:33:37.097Z,40.09
2019-01-14T16:36:04.353Z,40.09
2019-01-14T16:38:31.491Z,39.77
2019-01-14T16:40:58.354Z,39.24
2019-01-14T16:43:25.233Z,38.97
2019-01-14T16:45:52.171Z,38.76
2019-01-14T16:48:19.406Z,38.66
2019-01-14T16:50:46.410Z,38.22
2019-01-14T16:53:13.273Z,38.06
2019-01-14T16:55:40.425Z,38.53
2019-01-14T16:58:07.314Z,38.00
2019-01-14T17:00:34.304Z,38.41
2019-01-14T17:03:01.444Z,38.60
2019-01-14T17:05:28.325Z,39.31
2019-01-14T17:07:55.986Z,40.07
2019-01-14T17:10:25.231Z,41.83
2019-01-14T17:12:51.472Z,42.50
2019-01-14T17:15:18.747Z,42.84
2019-01-14T17:17:45.831Z,42.79
2019-01-14T17:20:12.788Z,43.07
2019-01-14T17:22:39.734Z,44.32
2019-01-14T17:25:06.615Z,44.63
2019-01-14T17:27:33.777Z,43.89
2019-01-14T17:30:00.658Z,44.14
2019-01-14T17:32:27.617Z,43.10
2019-01-14T17:34:54.608Z,42.74
2019-01-14T17:37:21.462Z,43.55
2019-01-14T17:39:48.715Z,43.48
2019-01-14T17:42:15.574Z,43.66
2019-01-14T17:44:43.597Z,43.42
2019-01-14T17:47:11.005Z,43.38
2019-01-14T17:49:37.968Z,43.67
2019-01-14T17:52:04.829Z,42.82
2019-01-14T17:54:31.697Z,43.22
2019-01-14T17:56:58.617Z,43.08
2019-01-14T17:59:25.937Z,42.88
2019-01-14T18:01:53.284Z,43.02
2019-01-14T18:04:20.437Z,42.79
2019-01-14T18:06:47.672Z,42.09
2019-01-14T18:09:14.545Z,42.77
2019-01-14T18:11:41.431Z,42.73
2019-01-14T18:14:08.416Z,43.19
2019-01-14T18:16:35.682Z,42.13
2019-01-14T18:19:02.618Z,41.84
2019-01-14T18:21:29.618Z,42.19
2019-01-14T18:23:56.503Z,41.63
2019-01-14T18:26:23.452Z,42.53
2019-01-14T18:28:50.921Z,42.65
2019-01-14T18:31:17.862Z,41.98
2019-01-14T18:33:45.109Z,41.73
2019-01-14T18:36:12.004Z,41.98
2019-01-14T18:38:38.955Z,42.04
2019-01-14T18:41:07.156Z,42.12
2019-01-14T18:43:34.121Z,41.99
2019-01-14T18:46:02.706Z,41.79
2019-01-14T18:48:29.582Z,41.64
2019-01-14T18:50:56.455Z,41.16
2019-01-14T18:53:23.477Z,41.92
2019-01-14T18:55:50.442Z,42.16
2019-01-14T18:58:17.322Z,41.17
2019-01-14T19:00:44.232Z,41.30
2019-01-14T19:03:11.425Z,41.04
2019-01-14T19:05:38.675Z,41.54
2019-01-14T19:08:05.563Z,41.72
2019-01-14T19:10:32.978Z,42.25
2019-01-14T19:13:00.130Z,42.68
2019-01-14T19:15:27.410Z,42.84
2019-01-14T19:17:54.761Z,42.12
2019-01-14T19:20:22.105Z,41.78
2019-01-14T19:22:49.079Z,41.47
2019-01-14T19:25:16.006Z,42.14
2019-01-14T19:27:42.908Z,42.25
2019-01-14T19:30:09.799Z,41.29
2019-01-14T19:32:38.643Z,41.14
2019-01-14T19:35:05.615Z,41.46
2019-01-14T19:37:32.868Z,41.10
2019-01-14T19:40:00.166Z,41.50
2019-01-14T19:42:27.086Z,41.86
2019-01-14T19:44:54.017Z,42.47
2019-01-14T19:47:21.009Z,41.96
2019-01-14T19:49:48.411Z,41.76
2019-01-14T19:52:15.285Z,41.07
2019-01-14T19:54:42.630Z,41.45
2019-01-14T19:57:09.885Z,41.75
2019-01-14T19:59:36.794Z,41.38
2019-01-14T20:02:04.589Z,41.26
2019-01-14T20:04:31.726Z,42.13
2019-01-14T20:06:59.658Z,42.40
2019-01-14T20:09:26.660Z,42.48
2019-01-14T20:11:53.915Z,43.06
2019-01-14T20:14:20.861Z,42.64
2019-01-14T20:16:47.765Z,42.46
2019-01-14T20:19:14.715Z,41.79
2019-01-14T20:21:41.889Z,43.13
2019-01-14T20:24:09.259Z,43.03
2019-01-14T20:26:38.790Z,42.84
2019-01-14T20:29:05.991Z,43.57
2019-01-14T20:31:33.246Z,44.40
2019-01-14T20:34:00.528Z,44.04
2019-01-14T20:36:27.885Z,44.02
2019-01-14T20:38:55.230Z,44.19
2019-01-14T20:43:56.493Z,44.14
2019-01-14T20:46:25.871Z,43.78
2019-01-14T20:48:54.418Z,43.27
2019-01-14T20:51:21.837Z,42.88
2019-01-14T20:56:30.042Z,42.79
2019-01-14T20:58:56.954Z,42.90
2019-01-14T21:01:24.266Z,43.48
2019-01-14T21:03:56.615Z,42.80
2019-01-14T21:06:23.921Z,42.57
2019-01-14T21:08:51.254Z,42.46
2019-01-14T21:11:23.836Z,43.00
2019-01-14T21:13:46.821Z,42.74
2019-01-14T21:16:14.016Z,42.38
2019-01-14T21:18:41.479Z,41.89
2019-01-14T21:21:08.749Z,42.68
2019-01-14T21:23:36.002Z,42.39
2019-01-14T21:26:03.232Z,42.20
2019-01-14T21:28:30.477Z,42.33
2019-01-14T21:30:57.382Z,42.13
2019-01-14T21:33:24.752Z,42.50
2019-01-14T21:35:52.031Z,42.23
2019-01-14T21:38:18.902Z,42.31
2019-01-14T21:40:46.130Z,42.98
2019-01-14T21:43:13.043Z,43.17
2019-01-14T21:45:39.996Z,43.35
2019-01-14T21:48:06.965Z,42.91
2019-01-14T21:50:34.213Z,42.44
2019-01-14T21:53:01.105Z,42.25
2019-01-14T21:55:29.450Z,42.06
2019-01-14T21:57:56.431Z,42.31
2019-01-14T22:00:23.748Z,42.12
2019-01-14T22:02:51.006Z,42.24
2019-01-14T22:05:17.968Z,42.14
2019-01-14T22:07:44.968Z,41.08
2019-01-14T22:10:11.896Z,41.36
2019-01-14T22:12:39.201Z,42.12
2019-01-14T22:15:06.454Z,42.02
2019-01-14T22:17:33.387Z,41.70
2019-01-14T22:20:00.542Z,41.50
2019-01-14T22:22:27.475Z,41.25
2019-01-14T22:24:54.381Z,41.23
2019-01-14T22:27:21.947Z,41.13
2019-01-14T22:29:49.151Z,40.79
2019-01-14T22:32:16.101Z,40.60
2019-01-14T22:34:43.335Z,41.53
2019-01-14T22:37:10.202Z,41.40
2019-01-14T22:39:37.178Z,41.93
2019-01-14T22:42:04.372Z,41.81
2019-01-14T22:44:31.269Z,41.89
2019-01-14T22:46:59.115Z,42.16
2019-01-14T22:49:25.989Z,41.91
2019-01-14T22:51:53.280Z,41.63
2019-01-14T22:54:20.164Z,41.73
2019-01-14T22:56:47.389Z,42.12
2019-01-14T22:59:14.375Z,42.25
2019-01-14T23:01:41.708Z,41.15
2019-01-14T23:04:08.667Z,41.13
2019-01-14T23:06:35.873Z,41.62
2019-01-14T23:09:03.052Z,41.73
2019-01-14T23:11:31.623Z,42.04
2019-01-14T23:13:58.873Z,42.42
2019-01-14T23:16:25.806Z,42.32
2019-01-14T23:18:52.656Z,42.65
2019-01-14T23:21:19.570Z,42.48
2019-01-14T23:23:46.504Z,42.43
2019-01-14T23:26:13.457Z,42.20
2019-01-14T23:28:40.657Z,41.76
2019-01-14T23:31:07.585Z,42.05
2019-01-14T23:33:34.506Z,42.47
2019-01-14T23:36:01.805Z,42.59
2019-01-14T23:38:29.055Z,42.11
2019-01-14T23:40:56.309Z,42.17
2019-01-14T23:43:23.245Z,42.14
2019-01-14T23:45:50.490Z,42.54
2019-01-14T23:48:17.762Z,42.71
2019-01-14T23:50:44.658Z,42.66
2019-01-14T23:53:11.943Z,42.88
2019-01-14T23:55:38.836Z,42.18
2019-01-14T23:58:06.153Z,42.57
